Wetterdaten: Dienstag, 09.06.2015
Datum Zeit Auen-Temp. Temp gefhlt Luftfeuchte Luftdruck Regen Wind Richtung Richtung Taupunkt Windben
09.06.2015 00:00 11,5 C 11,5 C 87 % 1023,4 hPa 0,0 mm 0,0 km/h (0 Bft) W-NW 292 9,4 C 0,0 km/h (0 Bft)
09.06.2015 00:05 11,5 C 11,5 C 87 % 1023,4 hPa 0,0 mm 0,0 km/h (0 Bft) W-SW 247 9,4 C 0,0 km/h (0 Bft)
09.06.2015 00:10 11,5 C 11,5 C 87 % 1023,4 hPa 0,0 mm 0,0 km/h (0 Bft) SW 225 9,4 C 0,0 km/h (0 Bft)
09.06.2015 00:15 11,5 C 11,5 C 87 % 1023,4 hPa 0,0 mm 0,0 km/h (0 Bft) S 180 9,4 C 0,0 km/h (0 Bft)
09.06.2015 00:20 11,6 C 11,6 C 87 % 1023,4 hPa 0,0 mm 0,3 km/h (0 Bft) S 180 9,5 C 3,6 km/h (1 Bft)
09.06.2015 00:25 11,6 C 11,6 C 87 % 1023,4 hPa 0,0 mm 0,3 km/h (0 Bft) SW 225 9,5 C 0,0 km/h (0 Bft)
09.06.2015 00:30 11,6 C 11,6 C 87 % 1023,4 hPa 0,0 mm 0,3 km/h (0 Bft) S 180 9,5 C 0,0 km/h (0 Bft)
09.06.2015 00:35 11,6 C 11,6 C 87 % 1023,6 hPa 0,0 mm 0,5 km/h (0 Bft) W-SW 247 9,5 C 3,9 km/h (1 Bft)
09.06.2015 00:40 11,6 C 11,5 C 91 % 1023,6 hPa 0,0 mm 0,8 km/h (0 Bft) SW 225 10,2 C 4,1 km/h (1 Bft)
09.06.2015 00:45 11,6 C 11,5 C 91 % 1023,6 hPa 0,0 mm 0,8 km/h (0 Bft) SW 225 10,2 C 0,0 km/h (0 Bft)
09.06.2015 00:50 11,6 C 11,5 C 91 % 1023,6 hPa 0,0 mm 0,3 km/h (0 Bft) W-SW 247 10,2 C 0,0 km/h (0 Bft)
09.06.2015 00:55 11,5 C 11,5 C 87 % 1023,2 hPa 0,0 mm 0,8 km/h (0 Bft) W-SW 247 9,4 C 0,0 km/h (0 Bft)
09.06.2015 01:00 11,5 C 11,5 C 87 % 1023,2 hPa 0,0 mm 0,5 km/h (0 Bft) SW 225 9,4 C 0,0 km/h (0 Bft)
09.06.2015 01:05 11,5 C 11,5 C 87 % 1023,2 hPa 0,0 mm 0,3 km/h (0 Bft) W 270 9,4 C 0,0 km/h (0 Bft)
09.06.2015 01:10 11,5 C 11,5 C 87 % 1023,2 hPa 0,0 mm 0,0 km/h (0 Bft) SW 225 9,4 C 0,0 km/h (0 Bft)
09.06.2015 01:15 11,5 C 11,5 C 87 % 1023,1 hPa 0,0 mm 0,3 km/h (0 Bft) W-SW 247 9,4 C 0,0 km/h (0 Bft)
09.06.2015 01:20 11,5 C 11,5 C 87 % 1023,1 hPa 0,0 mm 0,5 km/h (0 Bft) W-SW 247 9,4 C 5,4 km/h (1 Bft)
09.06.2015 01:25 11,5 C 11,4 C 91 % 1023,1 hPa 0,0 mm 0,8 km/h (0 Bft) W 270 10,1 C 0,0 km/h (0 Bft)
09.06.2015 01:30 11,5 C 11,4 C 91 % 1023,1 hPa 0,0 mm 2,3 km/h (1 Bft) W 270 10,1 C 7,8 km/h (2 Bft)
09.06.2015 01:35 11,4 C 11,3 C 91 % 1023,0 hPa 0,0 mm 4,4 km/h (1 Bft) W 270 10,0 C 8,3 km/h (2 Bft)
09.06.2015 01:40 11,3 C 11,2 C 91 % 1023,0 hPa 0,0 mm 6,2 km/h (2 Bft) W 270 9,9 C 10,1 km/h (2 Bft)
09.06.2015 01:45 11,3 C 11,2 C 91 % 1023,0 hPa 0,0 mm 6,0 km/h (2 Bft) W 270 9,9 C 9,6 km/h (2 Bft)
09.06.2015 01:50 11,2 C 11,1 C 91 % 1023,0 hPa 0,0 mm 4,4 km/h (1 Bft) W-NW 292 9,8 C 3,1 km/h (1 Bft)
09.06.2015 01:55 11,2 C 11,1 C 90 % 1023,0 hPa 0,0 mm 4,1 km/h (1 Bft) W-SW 247 9,6 C 8,8 km/h (2 Bft)
09.06.2015 02:00 11,1 C 11,0 C 90 % 1023,0 hPa 0,0 mm 3,6 km/h (1 Bft) NW 315 9,5 C 5,4 km/h (1 Bft)
09.06.2015 02:05 11,1 C 11,0 C 90 % 1023,0 hPa 0,0 mm 3,4 km/h (1 Bft) NW 315 9,5 C 0,0 km/h (0 Bft)
09.06.2015 02:10 11,0 C 10,9 C 90 % 1023,0 hPa 0,0 mm 4,4 km/h (1 Bft) NW 315 9,4 C 5,7 km/h (1 Bft)
09.06.2015 02:15 11,0 C 10,9 C 90 % 1022,7 hPa 0,0 mm 4,9 km/h (1 Bft) W-NW 292 9,4 C 5,2 km/h (1 Bft)
09.06.2015 02:20 11,0 C 10,9 C 90 % 1022,7 hPa 0,0 mm 5,4 km/h (1 Bft) W 270 9,4 C 5,2 km/h (1 Bft)
09.06.2015 02:25 11,0 C 10,9 C 90 % 1022,7 hPa 0,0 mm 4,9 km/h (1 Bft) NW 315 9,4 C 4,4 km/h (1 Bft)
09.06.2015 02:30 11,0 C 10,9 C 91 % 1022,7 hPa 0,0 mm 4,4 km/h (1 Bft) NW 315 9,6 C 4,4 km/h (1 Bft)
09.06.2015 02:35 11,0 C 10,9 C 91 % 1022,6 hPa 0,0 mm 3,9 km/h (1 Bft) NW 315 9,6 C 4,9 km/h (1 Bft)
09.06.2015 02:40 11,0 C 10,9 C 91 % 1022,6 hPa 0,0 mm 3,1 km/h (1 Bft) NO 45 9,6 C 0,0 km/h (0 Bft)
09.06.2015 02:45 10,9 C 10,8 C 91 % 1022,6 hPa 0,0 mm 3,4 km/h (1 Bft) W-NW 292 9,5 C 3,1 km/h (1 Bft)
09.06.2015 02:50 10,9 C 10,8 C 91 % 1022,6 hPa 0,0 mm 3,9 km/h (1 Bft) NW 315 9,5 C 11,1 km/h (2 Bft)
09.06.2015 02:55 10,8 C 10,7 C 91 % 1022,5 hPa 0,0 mm 3,9 km/h (1 Bft) W-NW 292 9,4 C 4,4 km/h (1 Bft)
09.06.2015 03:00 10,8 C 10,7 C 91 % 1022,5 hPa 0,0 mm 4,1 km/h (1 Bft) NW 315 9,4 C 7,5 km/h (2 Bft)
09.06.2015 03:05 10,8 C 10,7 C 91 % 1022,5 hPa 0,0 mm 3,9 km/h (1 Bft) W 270 9,4 C 3,1 km/h (1 Bft)
09.06.2015 03:10 10,7 C 10,6 C 91 % 1022,5 hPa 0,0 mm 2,8 km/h (1 Bft) W 270 9,3 C 0,0 km/h (0 Bft)
09.06.2015 03:15 10,7 C 10,6 C 91 % 1022,4 hPa 0,0 mm 3,4 km/h (1 Bft) W 270 9,3 C 4,1 km/h (1 Bft)
09.06.2015 03:20 10,8 C 10,7 C 91 % 1022,4 hPa 0,0 mm 1,8 km/h (1 Bft) W-NW 292 9,4 C 0,0 km/h (0 Bft)
09.06.2015 03:25 10,7 C 10,6 C 91 % 1022,4 hPa 0,0 mm 1,8 km/h (1 Bft) S 180 9,3 C 4,1 km/h (1 Bft)
09.06.2015 03:30 10,8 C 10,7 C 91 % 1022,4 hPa 0,0 mm 2,3 km/h (1 Bft) NW 315 9,4 C 2,8 km/h (1 Bft)
09.06.2015 03:35 10,7 C 10,6 C 91 % 1022,4 hPa 0,0 mm 2,6 km/h (1 Bft) W-NW 292 9,3 C 4,4 km/h (1 Bft)
09.06.2015 03:40 10,7 C 10,6 C 91 % 1022,4 hPa 0,0 mm 3,1 km/h (1 Bft) N-NW 337 9,3 C 6,7 km/h (2 Bft)
09.06.2015 03:45 10,7 C 10,6 C 91 % 1022,4 hPa 0,0 mm 2,6 km/h (1 Bft) N-NW 337 9,3 C 0,0 km/h (0 Bft)
09.06.2015 03:50 10,7 C 10,6 C 91 % 1022,4 hPa 0,0 mm 1,6 km/h (1 Bft) N-NO 22 9,3 C 3,4 km/h (1 Bft)
09.06.2015 03:55 10,7 C 10,6 C 91 % 1022,2 hPa 0,0 mm 1,6 km/h (1 Bft) NW 315 9,3 C 6,5 km/h (2 Bft)
09.06.2015 04:00 10,6 C 10,6 C 88 % 1022,2 hPa 0,0 mm 2,1 km/h (1 Bft) NO 45 8,7 C 0,0 km/h (0 Bft)
09.06.2015 04:05 10,6 C 10,6 C 88 % 1022,2 hPa 0,0 mm 2,1 km/h (1 Bft) N-NW 337 8,7 C 0,0 km/h (0 Bft)
09.06.2015 04:10 10,6 C 10,6 C 88 % 1022,2 hPa 0,0 mm 1,6 km/h (1 Bft) W-NW 292 8,7 C 2,8 km/h (1 Bft)
09.06.2015 04:15 10,6 C 10,6 C 88 % 1022,0 hPa 0,0 mm 1,0 km/h (0 Bft) NW 315 8,7 C 0,0 km/h (0 Bft)
09.06.2015 04:20 10,6 C 10,6 C 88 % 1022,0 hPa 0,0 mm 0,8 km/h (0 Bft) NW 315 8,7 C 2,6 km/h (1 Bft)
09.06.2015 04:25 10,6 C 10,6 C 88 % 1022,0 hPa 0,0 mm 0,8 km/h (0 Bft) N-NO 22 8,7 C 0,0 km/h (0 Bft)
09.06.2015 04:30 10,6 C 10,6 C 88 % 1022,0 hPa 0,0 mm 1,6 km/h (1 Bft) NW 315 8,7 C 0,0 km/h (0 Bft)
09.06.2015 04:35 10,6 C 10,5 C 91 % 1021,9 hPa 0,0 mm 2,3 km/h (1 Bft) NW 315 9,2 C 4,4 km/h (1 Bft)
09.06.2015 04:40 10,6 C 10,5 C 91 % 1021,9 hPa 0,0 mm 2,3 km/h (1 Bft) NW 315 9,2 C 3,9 km/h (1 Bft)
09.06.2015 04:45 10,6 C 10,5 C 91 % 1021,9 hPa 0,0 mm 2,6 km/h (1 Bft) W-NW 292 9,2 C 3,4 km/h (1 Bft)
09.06.2015 04:50 10,6 C 10,5 C 91 % 1021,9 hPa 0,0 mm 2,1 km/h (1 Bft) N-NW 337 9,2 C 5,7 km/h (1 Bft)
09.06.2015 04:55 10,5 C 10,5 C 88 % 1021,9 hPa 0,0 mm 2,1 km/h (1 Bft) NW 315 8,6 C 3,6 km/h (1 Bft)
09.06.2015 05:00 10,5 C 10,4 C 91 % 1021,9 hPa 0,0 mm 3,4 km/h (1 Bft) NW 315 9,1 C 5,7 km/h (1 Bft)
09.06.2015 05:05 10,5 C 10,4 C 91 % 1021,9 hPa 0,0 mm 3,4 km/h (1 Bft) N-NW 337 9,1 C 5,4 km/h (1 Bft)
09.06.2015 05:10 10,4 C 10,4 C 88 % 1021,9 hPa 0,0 mm 4,1 km/h (1 Bft) NW 315 8,5 C 6,5 km/h (2 Bft)
09.06.2015 05:15 10,4 C 10,3 C 91 % 1022,2 hPa 0,0 mm 4,9 km/h (1 Bft) W-NW 292 9,0 C 9,8 km/h (2 Bft)
09.06.2015 05:20 10,4 C 10,3 C 91 % 1022,2 hPa 0,0 mm 3,9 km/h (1 Bft) SW 225 9,0 C 0,0 km/h (0 Bft)
09.06.2015 05:25 10,4 C 10,4 C 88 % 1022,2 hPa 0,0 mm 3,1 km/h (1 Bft) NW 315 8,5 C 4,7 km/h (1 Bft)
09.06.2015 05:30 10,4 C 10,3 C 91 % 1022,2 hPa 0,0 mm 2,1 km/h (1 Bft) NW 315 9,0 C 5,2 km/h (1 Bft)
09.06.2015 05:35 10,3 C 10,3 C 88 % 1022,4 hPa 0,0 mm 2,8 km/h (1 Bft) NW 315 8,4 C 6,0 km/h (2 Bft)
09.06.2015 05:40 10,3 C 10,3 C 88 % 1022,4 hPa 0,0 mm 4,4 km/h (1 Bft) W 270 8,4 C 12,4 km/h (3 Bft)
09.06.2015 05:45 10,3 C 10,3 C 88 % 1022,4 hPa 0,0 mm 3,9 km/h (1 Bft) N-NW 337 8,4 C 4,7 km/h (1 Bft)
09.06.2015 05:50 10,3 C 10,3 C 88 % 1022,4 hPa 0,0 mm 3,1 km/h (1 Bft) N-NO 22 8,4 C 4,9 km/h (1 Bft)
09.06.2015 05:55 10,3 C 10,3 C 88 % 1022,2 hPa 0,0 mm 2,8 km/h (1 Bft) NW 315 8,4 C 0,0 km/h (0 Bft)
09.06.2015 06:00 10,3 C 10,4 C 88 % 1022,2 hPa 0,0 mm 1,6 km/h (1 Bft) N-NW 337 8,4 C 0,0 km/h (0 Bft)
09.06.2015 06:05 10,3 C 10,4 C 88 % 1022,2 hPa 0,0 mm 1,0 km/h (0 Bft) NW 315 8,4 C 3,1 km/h (1 Bft)
09.06.2015 06:10 10,4 C 10,4 C 88 % 1022,2 hPa 0,0 mm 0,8 km/h (0 Bft) W-NW 292 8,5 C 0,0 km/h (0 Bft)
09.06.2015 06:15 10,3 C 10,4 C 88 % 1022,4 hPa 0,0 mm 1,0 km/h (0 Bft) N-NW 337 8,4 C 0,0 km/h (0 Bft)
09.06.2015 06:20 10,4 C 10,4 C 88 % 1022,4 hPa 0,0 mm 1,6 km/h (1 Bft) NW 315 8,5 C 2,6 km/h (1 Bft)
09.06.2015 06:25 10,4 C 10,4 C 88 % 1022,4 hPa 0,0 mm 1,0 km/h (0 Bft) NW 315 8,5 C 2,8 km/h (1 Bft)
09.06.2015 06:30 10,4 C 10,4 C 88 % 1022,4 hPa 0,0 mm 1,8 km/h (1 Bft) W-SW 247 8,5 C 3,9 km/h (1 Bft)
09.06.2015 06:35 10,4 C 10,5 C 88 % 1022,4 hPa 0,0 mm 2,1 km/h (1 Bft) W-NW 292 8,5 C 0,0 km/h (0 Bft)
09.06.2015 06:40 10,5 C 10,5 C 88 % 1022,4 hPa 0,0 mm 1,8 km/h (1 Bft) NO 45 8,6 C 3,1 km/h (1 Bft)
09.06.2015 06:45 10,5 C 10,5 C 88 % 1022,4 hPa 0,0 mm 1,6 km/h (1 Bft) N 360 8,6 C 3,1 km/h (1 Bft)
09.06.2015 06:50 10,4 C 10,5 C 88 % 1022,4 hPa 0,0 mm 3,1 km/h (1 Bft) N-NO 22 8,5 C 4,4 km/h (1 Bft)
09.06.2015 06:55 10,5 C 10,5 C 88 % 1022,4 hPa 0,0 mm 2,6 km/h (1 Bft) N-NW 337 8,6 C 2,8 km/h (1 Bft)
09.06.2015 07:00 10,5 C 10,6 C 88 % 1022,4 hPa 0,0 mm 2,3 km/h (1 Bft) NO 45 8,6 C 2,8 km/h (1 Bft)
09.06.2015 07:05 10,5 C 10,6 C 88 % 1022,4 hPa 0,0 mm 2,8 km/h (1 Bft) N-NW 337 8,6 C 5,2 km/h (1 Bft)
09.06.2015 07:10 10,5 C 10,6 C 88 % 1022,4 hPa 0,0 mm 2,3 km/h (1 Bft) O-NO 67 8,6 C 4,9 km/h (1 Bft)
09.06.2015 07:15 10,5 C 10,5 C 88 % 1022,4 hPa 0,0 mm 3,4 km/h (1 Bft) N-NW 337 8,6 C 4,7 km/h (1 Bft)
09.06.2015 07:20 10,5 C 10,5 C 88 % 1022,4 hPa 0,0 mm 3,1 km/h (1 Bft) N 360 8,6 C 4,9 km/h (1 Bft)
09.06.2015 07:25 10,5 C 10,5 C 88 % 1022,4 hPa 0,0 mm 2,8 km/h (1 Bft) NW 315 8,6 C 4,7 km/h (1 Bft)
09.06.2015 07:30 10,5 C 10,5 C 88 % 1022,4 hPa 0,0 mm 3,1 km/h (1 Bft) N-NW 337 8,6 C 3,9 km/h (1 Bft)
09.06.2015 07:35 10,5 C 10,6 C 88 % 1022,6 hPa 0,0 mm 1,8 km/h (1 Bft) N-NO 22 8,6 C 0,0 km/h (0 Bft)
09.06.2015 07:40 10,5 C 10,6 C 88 % 1022,6 hPa 0,0 mm 1,8 km/h (1 Bft) NW 315 8,6 C 2,8 km/h (1 Bft)
09.06.2015 07:45 10,6 C 10,6 C 88 % 1022,6 hPa 0,0 mm 2,1 km/h (1 Bft) NW 315 8,7 C 4,9 km/h (1 Bft)
09.06.2015 07:50 10,6 C 10,7 C 88 % 1022,6 hPa 0,0 mm 2,6 km/h (1 Bft) NW 315 8,7 C 4,1 km/h (1 Bft)
09.06.2015 07:55 10,6 C 10,7 C 88 % 1022,4 hPa 0,0 mm 2,6 km/h (1 Bft) NO 45 8,7 C 3,4 km/h (1 Bft)
09.06.2015 08:00 10,6 C 10,7 C 88 % 1022,4 hPa 0,0 mm 3,1 km/h (1 Bft) N-NW 337 8,7 C 4,7 km/h (1 Bft)
09.06.2015 08:05 10,7 C 10,8 C 88 % 1022,4 hPa 0,0 mm 2,6 km/h (1 Bft) N-NW 337 8,8 C 0,0 km/h (0 Bft)
09.06.2015 08:10 10,7 C 10,9 C 88 % 1022,4 hPa 0,0 mm 1,3 km/h (1 Bft) N-NO 22 8,8 C 0,0 km/h (0 Bft)
09.06.2015 08:15 10,7 C 10,7 C 88 % 1022,5 hPa 0,0 mm 2,1 km/h (1 Bft) N-NO 22 8,8 C 7,3 km/h (2 Bft)
09.06.2015 08:20 10,6 C 10,7 C 88 % 1022,5 hPa 0,0 mm 3,4 km/h (1 Bft) N-NO 22 8,7 C 2,8 km/h (1 Bft)
09.06.2015 08:25 10,6 C 10,7 C 88 % 1022,5 hPa 0,0 mm 3,9 km/h (1 Bft) N-NW 337 8,7 C 0,0 km/h (0 Bft)
09.06.2015 08:30 10,7 C 10,8 C 88 % 1022,5 hPa 0,0 mm 2,3 km/h (1 Bft) NW 315 8,8 C 6,2 km/h (2 Bft)
09.06.2015 08:35 10,7 C 10,7 C 90 % 1022,6 hPa 0,0 mm 2,3 km/h (1 Bft) O-NO 67 9,1 C 4,1 km/h (1 Bft)
09.06.2015 08:40 10,6 C 10,7 C 88 % 1022,6 hPa 0,0 mm 3,9 km/h (1 Bft) N-NW 337 8,7 C 8,5 km/h (2 Bft)
09.06.2015 08:45 10,6 C 10,6 C 88 % 1022,6 hPa 0,0 mm 4,4 km/h (1 Bft) N-NO 22 8,7 C 2,8 km/h (1 Bft)
09.06.2015 08:50 10,5 C 10,5 C 88 % 1022,6 hPa 0,0 mm 5,4 km/h (1 Bft) NO 45 8,6 C 5,2 km/h (1 Bft)
09.06.2015 08:55 10,5 C 10,5 C 90 % 1022,7 hPa 0,0 mm 4,7 km/h (1 Bft) NO 45 8,9 C 2,6 km/h (1 Bft)
09.06.2015 09:00 10,5 C 10,5 C 90 % 1022,7 hPa 0,0 mm 4,7 km/h (1 Bft) N-NO 22 8,9 C 5,2 km/h (1 Bft)
09.06.2015 09:05 10,4 C 10,5 C 88 % 1022,7 hPa 0,0 mm 4,9 km/h (1 Bft) N-NO 22 8,5 C 7,8 km/h (2 Bft)
09.06.2015 09:10 10,5 C 10,5 C 88 % 1022,7 hPa 0,0 mm 4,1 km/h (1 Bft) N-NO 22 8,6 C 0,0 km/h (0 Bft)
09.06.2015 09:15 10,5 C 10,6 C 88 % 1022,7 hPa 0,0 mm 4,4 km/h (1 Bft) N-NO 22 8,6 C 5,7 km/h (1 Bft)
09.06.2015 09:20 10,5 C 10,5 C 88 % 1022,7 hPa 0,0 mm 5,2 km/h (1 Bft) NO 45 8,6 C 10,1 km/h (2 Bft)
09.06.2015 09:25 10,4 C 10,6 C 88 % 1022,7 hPa 0,0 mm 5,4 km/h (1 Bft) NO 45 8,5 C 7,8 km/h (2 Bft)
09.06.2015 09:30 10,5 C 10,5 C 88 % 1022,7 hPa 0,0 mm 4,7 km/h (1 Bft) N-NO 22 8,6 C 6,2 km/h (2 Bft)
09.06.2015 09:35 10,4 C 10,5 C 88 % 1022,7 hPa 0,0 mm 5,2 km/h (1 Bft) NO 45 8,5 C 4,9 km/h (1 Bft)
09.06.2015 09:40 10,4 C 10,5 C 88 % 1022,7 hPa 0,0 mm 5,7 km/h (1 Bft) N-NW 337 8,5 C 6,2 km/h (2 Bft)
09.06.2015 09:45 10,5 C 10,6 C 88 % 1022,7 hPa 0,0 mm 4,9 km/h (1 Bft) N-NW 337 8,6 C 2,6 km/h (1 Bft)
09.06.2015 09:50 10,5 C 10,6 C 88 % 1022,7 hPa 0,0 mm 4,4 km/h (1 Bft) N 360 8,6 C 9,1 km/h (2 Bft)
09.06.2015 09:55 10,5 C 10,6 C 88 % 1022,8 hPa 0,0 mm 4,9 km/h (1 Bft) NO 45 8,6 C 4,9 km/h (1 Bft)
09.06.2015 10:00 10,5 C 10,7 C 88 % 1022,8 hPa 0,0 mm 5,4 km/h (1 Bft) NW 315 8,6 C 4,7 km/h (1 Bft)
09.06.2015 10:05 10,4 C 10,6 C 88 % 1022,8 hPa 0,0 mm 6,0 km/h (2 Bft) O-NO 67 8,5 C 9,3 km/h (2 Bft)
09.06.2015 10:10 10,4 C 10,6 C 88 % 1022,8 hPa 0,0 mm 5,7 km/h (1 Bft) NW 315 8,5 C 4,4 km/h (1 Bft)
09.06.2015 10:15 10,5 C 10,7 C 88 % 1023,0 hPa 0,0 mm 5,4 km/h (1 Bft) N-NO 22 8,6 C 7,8 km/h (2 Bft)
09.06.2015 10:20 10,6 C 10,9 C 88 % 1023,0 hPa 0,0 mm 3,6 km/h (1 Bft) NO 45 8,7 C 2,8 km/h (1 Bft)
09.06.2015 10:25 10,6 C 10,7 C 88 % 1023,0 hPa 0,0 mm 3,6 km/h (1 Bft) NO 45 8,7 C 7,0 km/h (2 Bft)
09.06.2015 10:30 10,5 C 10,6 C 88 % 1023,0 hPa 0,0 mm 4,9 km/h (1 Bft) NO 45 8,6 C 14,2 km/h (3 Bft)
09.06.2015 10:35 10,6 C 10,7 C 88 % 1023,1 hPa 0,0 mm 5,2 km/h (1 Bft) N-NW 337 8,7 C 4,1 km/h (1 Bft)
09.06.2015 10:40 10,6 C 10,7 C 88 % 1023,1 hPa 0,0 mm 4,4 km/h (1 Bft) O-SO 112 8,7 C 7,5 km/h (2 Bft)
09.06.2015 10:45 10,5 C 10,6 C 88 % 1023,1 hPa 0,0 mm 5,2 km/h (1 Bft) N-NO 22 8,6 C 7,0 km/h (2 Bft)
09.06.2015 10:50 10,6 C 10,7 C 88 % 1023,1 hPa 0,0 mm 4,9 km/h (1 Bft) SW 225 8,7 C 3,6 km/h (1 Bft)
09.06.2015 10:55 10,6 C 10,7 C 88 % 1023,2 hPa 0,0 mm 3,9 km/h (1 Bft) NO 45 8,7 C 7,0 km/h (2 Bft)
09.06.2015 11:00 10,6 C 10,8 C 88 % 1023,2 hPa 0,0 mm 4,1 km/h (1 Bft) O-NO 67 8,7 C 3,1 km/h (1 Bft)
09.06.2015 11:05 10,6 C 10,8 C 88 % 1023,2 hPa 0,0 mm 4,1 km/h (1 Bft) NO 45 8,7 C 8,0 km/h (2 Bft)
09.06.2015 11:10 10,6 C 10,8 C 88 % 1023,2 hPa 0,0 mm 4,7 km/h (1 Bft) N 360 8,7 C 12,7 km/h (3 Bft)
09.06.2015 11:15 10,6 C 10,8 C 88 % 1023,2 hPa 0,0 mm 5,4 km/h (1 Bft) N-NO 22 8,7 C 4,9 km/h (1 Bft)
09.06.2015 11:20 10,6 C 10,8 C 88 % 1023,2 hPa 0,7 mm 6,5 km/h (2 Bft) O-NO 67 8,7 C 5,7 km/h (1 Bft)
09.06.2015 11:25 10,5 C 10,8 C 88 % 1023,2 hPa 0,0 mm 4,9 km/h (1 Bft) NO 45 8,6 C 4,7 km/h (1 Bft)
09.06.2015 11:30 10,5 C 10,7 C 88 % 1023,2 hPa 0,0 mm 4,7 km/h (1 Bft) N-NO 22 8,6 C 9,1 km/h (2 Bft)
09.06.2015 11:35 10,6 C 10,8 C 88 % 1023,1 hPa 0,0 mm 5,2 km/h (1 Bft) N-NO 22 8,7 C 6,0 km/h (2 Bft)
09.06.2015 11:40 10,7 C 11,0 C 88 % 1023,1 hPa 0,0 mm 4,9 km/h (1 Bft) NO 45 8,8 C 6,5 km/h (2 Bft)
09.06.2015 11:45 10,7 C 11,1 C 88 % 1023,1 hPa 0,0 mm 4,4 km/h (1 Bft) NO 45 8,8 C 0,0 km/h (0 Bft)
09.06.2015 11:50 10,8 C 11,2 C 88 % 1023,1 hPa 0,0 mm 3,6 km/h (1 Bft) O-NO 67 8,9 C 10,9 km/h (2 Bft)
09.06.2015 11:55 10,8 C 11,1 C 88 % 1023,1 hPa 0,0 mm 3,9 km/h (1 Bft) NO 45 8,9 C 7,3 km/h (2 Bft)
09.06.2015 12:00 10,9 C 11,3 C 88 % 1023,1 hPa 0,0 mm 5,4 km/h (1 Bft) O-NO 67 9,0 C 4,4 km/h (1 Bft)
09.06.2015 12:05 10,9 C 11,1 C 88 % 1023,1 hPa 0,0 mm 5,2 km/h (1 Bft) NO 45 9,0 C 8,8 km/h (2 Bft)
09.06.2015 12:10 10,9 C 11,1 C 88 % 1023,1 hPa 0,0 mm 6,0 km/h (2 Bft) N-NW 337 9,0 C 6,5 km/h (2 Bft)
09.06.2015 12:15 10,9 C 11,2 C 88 % 1023,2 hPa 0,0 mm 5,7 km/h (1 Bft) N-NW 337 9,0 C 11,7 km/h (2 Bft)
09.06.2015 12:20 10,9 C 11,2 C 88 % 1023,2 hPa 0,0 mm 5,4 km/h (1 Bft) N-NO 22 9,0 C 11,4 km/h (2 Bft)
09.06.2015 12:25 10,9 C 11,2 C 88 % 1023,2 hPa 0,0 mm 6,2 km/h (2 Bft) O-NO 67 9,0 C 5,2 km/h (1 Bft)
09.06.2015 12:30 11,0 C 11,2 C 88 % 1023,2 hPa 0,0 mm 5,4 km/h (1 Bft) N-NO 22 9,1 C 5,2 km/h (1 Bft)
09.06.2015 12:35 11,0 C 11,3 C 88 % 1023,2 hPa 0,0 mm 4,4 km/h (1 Bft) NO 45 9,1 C 0,0 km/h (0 Bft)
09.06.2015 12:40 11,1 C 11,5 C 88 % 1023,2 hPa 0,0 mm 5,2 km/h (1 Bft) NO 45 9,2 C 7,8 km/h (2 Bft)
09.06.2015 12:45 11,1 C 11,6 C 88 % 1023,2 hPa 0,0 mm 5,7 km/h (1 Bft) N-NO 22 9,2 C 9,8 km/h (2 Bft)
09.06.2015 12:50 11,1 C 11,6 C 88 % 1023,2 hPa 0,0 mm 5,4 km/h (1 Bft) N-NO 22 9,2 C 5,7 km/h (1 Bft)
09.06.2015 12:55 11,3 C 11,9 C 88 % 1023,3 hPa 0,0 mm 4,7 km/h (1 Bft) O-NO 67 9,4 C 5,2 km/h (1 Bft)
09.06.2015 13:00 11,4 C 12,1 C 88 % 1023,3 hPa 0,0 mm 4,4 km/h (1 Bft) N-NO 22 9,5 C 2,6 km/h (1 Bft)
09.06.2015 13:05 11,4 C 12,0 C 88 % 1023,3 hPa 0,0 mm 4,9 km/h (1 Bft) O-NO 67 9,5 C 8,0 km/h (2 Bft)
09.06.2015 13:10 11,3 C 11,6 C 88 % 1023,3 hPa 0,0 mm 6,2 km/h (2 Bft) O-NO 67 9,4 C 5,4 km/h (1 Bft)
09.06.2015 13:15 11,3 C 11,4 C 88 % 1023,1 hPa 0,0 mm 7,3 km/h (2 Bft) N-NO 22 9,4 C 6,2 km/h (2 Bft)
09.06.2015 13:20 11,1 C 11,4 C 88 % 1023,1 hPa 0,0 mm 5,4 km/h (1 Bft) O-NO 67 9,2 C 9,8 km/h (2 Bft)
09.06.2015 13:25 11,1 C 11,4 C 88 % 1023,1 hPa 0,0 mm 4,1 km/h (1 Bft) N-NO 22 9,2 C 0,0 km/h (0 Bft)
09.06.2015 13:30 11,1 C 11,4 C 88 % 1023,1 hPa 0,0 mm 4,4 km/h (1 Bft) N-NO 22 9,2 C 8,3 km/h (2 Bft)
09.06.2015 13:35 11,1 C 11,4 C 88 % 1023,4 hPa 0,0 mm 4,1 km/h (1 Bft) NO 45 9,2 C 5,2 km/h (1 Bft)
09.06.2015 13:40 11,3 C 11,4 C 88 % 1023,4 hPa 0,0 mm 4,1 km/h (1 Bft) NO 45 9,4 C 5,4 km/h (1 Bft)
09.06.2015 13:45 11,1 C 11,4 C 88 % 1023,4 hPa 0,0 mm 4,4 km/h (1 Bft) O-SO 112 9,2 C 6,2 km/h (2 Bft)
09.06.2015 13:50 11,3 C 11,4 C 88 % 1023,4 hPa 0,0 mm 4,4 km/h (1 Bft) NO 45 9,4 C 4,9 km/h (1 Bft)
09.06.2015 13:55 11,3 C 11,6 C 88 % 1023,2 hPa 0,0 mm 2,6 km/h (1 Bft) O-NO 67 9,4 C 0,0 km/h (0 Bft)
09.06.2015 14:00 11,3 C 11,5 C 88 % 1023,2 hPa 0,0 mm 4,7 km/h (1 Bft) NO 45 9,4 C 12,2 km/h (2 Bft)
09.06.2015 14:05 11,3 C 11,5 C 88 % 1023,2 hPa 0,0 mm 4,9 km/h (1 Bft) O 90 9,4 C 4,4 km/h (1 Bft)
09.06.2015 14:10 11,3 C 11,7 C 88 % 1023,2 hPa 0,0 mm 3,1 km/h (1 Bft) O-NO 67 9,4 C 0,0 km/h (0 Bft)
09.06.2015 14:15 11,4 C 11,9 C 88 % 1023,2 hPa 0,0 mm 2,1 km/h (1 Bft) N-NO 22 9,5 C 4,1 km/h (1 Bft)
09.06.2015 14:20 11,5 C 12,2 C 88 % 1023,2 hPa 0,0 mm 1,3 km/h (1 Bft) S-SO 157 9,6 C 0,0 km/h (0 Bft)
09.06.2015 14:25 11,8 C 12,6 C 88 % 1023,2 hPa 0,0 mm 1,0 km/h (0 Bft) N-NO 22 9,9 C 2,6 km/h (1 Bft)
09.06.2015 14:30 12,0 C 13,0 C 87 % 1023,2 hPa 0,0 mm 0,5 km/h (0 Bft) O-NO 67 9,9 C 0,0 km/h (0 Bft)
09.06.2015 14:35 12,0 C 13,2 C 87 % 1023,1 hPa 0,0 mm 0,3 km/h (0 Bft) O-NO 67 9,9 C 0,0 km/h (0 Bft)
09.06.2015 14:40 11,9 C 13,1 C 88 % 1023,1 hPa 0,0 mm 0,8 km/h (0 Bft) O-SO 112 10,0 C 5,7 km/h (1 Bft)
09.06.2015 14:45 11,8 C 12,9 C 87 % 1023,1 hPa 0,0 mm 1,8 km/h (1 Bft) O-NO 67 9,7 C 4,4 km/h (1 Bft)
09.06.2015 14:50 11,8 C 12,6 C 87 % 1023,1 hPa 0,0 mm 2,8 km/h (1 Bft) NO 45 9,7 C 0,0 km/h (0 Bft)
09.06.2015 14:55 11,7 C 12,5 C 87 % 1023,3 hPa 0,0 mm 2,6 km/h (1 Bft) N-NO 22 9,6 C 0,0 km/h (0 Bft)
09.06.2015 15:00 11,8 C 12,5 C 87 % 1023,3 hPa 0,0 mm 2,6 km/h (1 Bft) O 90 9,7 C 0,0 km/h (0 Bft)
09.06.2015 15:05 11,8 C 12,4 C 87 % 1023,3 hPa 0,0 mm 3,1 km/h (1 Bft) O 90 9,7 C 0,0 km/h (0 Bft)
09.06.2015 15:10 11,8 C 12,4 C 87 % 1023,3 hPa 0,0 mm 1,8 km/h (1 Bft) NO 45 9,7 C 3,6 km/h (1 Bft)
09.06.2015 15:15 11,9 C 12,4 C 87 % 1023,3 hPa 0,0 mm 0,8 km/h (0 Bft) N-NO 22 9,8 C 0,0 km/h (0 Bft)
09.06.2015 15:20 11,9 C 12,5 C 87 % 1023,3 hPa 0,0 mm 1,0 km/h (0 Bft) NO 45 9,8 C 0,0 km/h (0 Bft)
09.06.2015 15:25 11,9 C 12,5 C 87 % 1023,3 hPa 0,0 mm 0,8 km/h (0 Bft) O-NO 67 9,8 C 0,0 km/h (0 Bft)
09.06.2015 15:30 11,9 C 12,5 C 87 % 1023,3 hPa 0,0 mm 0,3 km/h (0 Bft) O-NO 67 9,8 C 0,0 km/h (0 Bft)
09.06.2015 15:35 11,9 C 12,5 C 87 % 1023,3 hPa 0,0 mm 0,3 km/h (0 Bft) SO 135 9,8 C 0,0 km/h (0 Bft)
09.06.2015 15:40 11,9 C 12,4 C 87 % 1023,3 hPa 0,0 mm 0,3 km/h (0 Bft) N-NO 22 9,8 C 0,0 km/h (0 Bft)
09.06.2015 15:45 11,8 C 12,2 C 87 % 1023,3 hPa 0,0 mm 1,3 km/h (1 Bft) NO 45 9,7 C 6,5 km/h (2 Bft)
09.06.2015 15:50 11,8 C 12,0 C 86 % 1023,3 hPa 0,0 mm 2,3 km/h (1 Bft) O-SO 112 9,5 C 0,0 km/h (0 Bft)
09.06.2015 15:55 11,8 C 11,9 C 86 % 1023,2 hPa 0,0 mm 2,1 km/h (1 Bft) NO 45 9,5 C 3,9 km/h (1 Bft)
09.06.2015 16:00 11,8 C 12,0 C 86 % 1023,2 hPa 0,0 mm 0,8 km/h (0 Bft) O 90 9,5 C 0,0 km/h (0 Bft)
09.06.2015 16:05 11,8 C 12,0 C 86 % 1023,2 hPa 0,0 mm 2,1 km/h (1 Bft) N-NO 22 9,5 C 5,4 km/h (1 Bft)
09.06.2015 16:10 11,8 C 11,9 C 86 % 1023,2 hPa 0,0 mm 2,8 km/h (1 Bft) N-NO 22 9,5 C 5,4 km/h (1 Bft)
09.06.2015 16:15 11,8 C 11,9 C 86 % 1023,3 hPa 0,0 mm 2,8 km/h (1 Bft) NO 45 9,5 C 3,4 km/h (1 Bft)
09.06.2015 16:20 11,8 C 11,9 C 86 % 1023,3 hPa 0,0 mm 2,1 km/h (1 Bft) O 90 9,5 C 0,0 km/h (0 Bft)
09.06.2015 16:25 11,8 C 11,9 C 86 % 1023,3 hPa 0,0 mm 0,8 km/h (0 Bft) NO 45 9,5 C 0,0 km/h (0 Bft)
09.06.2015 16:30 11,7 C 11,8 C 86 % 1023,3 hPa 0,0 mm 0,3 km/h (0 Bft) N-NO 22 9,4 C 0,0 km/h (0 Bft)
09.06.2015 16:35 11,7 C 11,8 C 86 % 1023,4 hPa 0,0 mm 0,5 km/h (0 Bft) N-NO 22 9,4 C 0,0 km/h (0 Bft)
09.06.2015 16:40 11,8 C 11,8 C 86 % 1023,4 hPa 0,0 mm 0,8 km/h (0 Bft) O-NO 67 9,5 C 0,0 km/h (0 Bft)
09.06.2015 16:45 11,7 C 11,7 C 86 % 1023,4 hPa 0,0 mm 1,6 km/h (1 Bft) N-NO 22 9,4 C 5,7 km/h (1 Bft)
09.06.2015 16:50 11,8 C 11,8 C 86 % 1023,4 hPa 0,0 mm 1,8 km/h (1 Bft) NO 45 9,5 C 4,1 km/h (1 Bft)
09.06.2015 16:55 11,7 C 11,8 C 86 % 1023,3 hPa 0,0 mm 1,8 km/h (1 Bft) O-NO 67 9,4 C 3,6 km/h (1 Bft)
09.06.2015 17:00 11,7 C 11,7 C 86 % 1023,3 hPa 0,0 mm 2,8 km/h (1 Bft) N-NW 337 9,4 C 7,0 km/h (2 Bft)
09.06.2015 17:05 11,7 C 11,6 C 87 % 1023,3 hPa 0,0 mm 4,1 km/h (1 Bft) NW 315 9,6 C 5,4 km/h (1 Bft)
09.06.2015 17:10 11,6 C 11,6 C 86 % 1023,3 hPa 0,0 mm 3,9 km/h (1 Bft) N-NW 337 9,3 C 8,5 km/h (2 Bft)
09.06.2015 17:15 11,6 C 11,6 C 87 % 1023,2 hPa 0,0 mm 3,9 km/h (1 Bft) N-NW 337 9,5 C 8,8 km/h (2 Bft)
09.06.2015 17:20 11,6 C 11,6 C 87 % 1023,2 hPa 0,0 mm 3,6 km/h (1 Bft) O-NO 67 9,5 C 0,0 km/h (0 Bft)
09.06.2015 17:25 11,6 C 11,6 C 87 % 1023,2 hPa 0,0 mm 3,1 km/h (1 Bft) NO 45 9,5 C 6,2 km/h (2 Bft)
09.06.2015 17:30 11,5 C 11,5 C 87 % 1023,2 hPa 0,0 mm 3,4 km/h (1 Bft) N-NW 337 9,4 C 11,7 km/h (2 Bft)
09.06.2015 17:35 11,5 C 11,6 C 87 % 1023,2 hPa 0,0 mm 5,2 km/h (1 Bft) N-NO 22 9,4 C 11,7 km/h (2 Bft)
09.06.2015 17:40 11,5 C 11,5 C 87 % 1023,2 hPa 0,0 mm 6,0 km/h (2 Bft) N-NO 22 9,4 C 4,4 km/h (1 Bft)
09.06.2015 17:45 11,4 C 11,4 C 87 % 1023,2 hPa 0,0 mm 5,4 km/h (1 Bft) O 90 9,3 C 4,4 km/h (1 Bft)
09.06.2015 17:50 11,3 C 11,4 C 87 % 1023,2 hPa 0,0 mm 5,2 km/h (1 Bft) NO 45 9,2 C 3,4 km/h (1 Bft)
09.06.2015 17:55 11,3 C 11,4 C 87 % 1023,3 hPa 0,0 mm 4,7 km/h (1 Bft) O-NO 67 9,2 C 11,4 km/h (2 Bft)
09.06.2015 18:00 11,3 C 11,2 C 89 % 1023,3 hPa 0,0 mm 4,7 km/h (1 Bft) N-NO 22 9,6 C 7,3 km/h (2 Bft)
09.06.2015 18:05 11,3 C 11,2 C 89 % 1023,3 hPa 0,0 mm 4,9 km/h (1 Bft) O-NO 67 9,6 C 4,9 km/h (1 Bft)
09.06.2015 18:10 11,1 C 11,2 C 87 % 1023,3 hPa 0,0 mm 4,7 km/h (1 Bft) N-NO 22 9,0 C 6,2 km/h (2 Bft)
09.06.2015 18:15 11,3 C 11,2 C 89 % 1023,3 hPa 0,0 mm 3,9 km/h (1 Bft) O-NO 67 9,6 C 0,0 km/h (0 Bft)
09.06.2015 18:20 11,3 C 11,2 C 89 % 1023,3 hPa 0,0 mm 2,3 km/h (1 Bft) O-SO 112 9,6 C 0,0 km/h (0 Bft)
09.06.2015 18:25 11,3 C 11,3 C 87 % 1023,3 hPa 0,0 mm 1,3 km/h (1 Bft) O 90 9,2 C 3,1 km/h (1 Bft)
09.06.2015 18:30 11,3 C 11,2 C 89 % 1023,3 hPa 0,0 mm 1,3 km/h (1 Bft) N-NO 22 9,6 C 0,0 km/h (0 Bft)
09.06.2015 18:35 11,3 C 11,2 C 89 % 1023,4 hPa 0,7 mm 1,8 km/h (1 Bft) O-NO 67 9,6 C 7,3 km/h (2 Bft)
09.06.2015 18:40 11,3 C 11,2 C 89 % 1023,4 hPa 0,0 mm 2,6 km/h (1 Bft) N-NO 22 9,6 C 9,1 km/h (2 Bft)
09.06.2015 18:45 11,3 C 11,2 C 89 % 1023,4 hPa 0,0 mm 4,4 km/h (1 Bft) NW 315 9,6 C 9,1 km/h (2 Bft)
09.06.2015 18:50 11,1 C 11,1 C 87 % 1023,4 hPa 0,0 mm 6,0 km/h (2 Bft) N-NW 337 9,0 C 7,0 km/h (2 Bft)
09.06.2015 18:55 11,1 C 11,0 C 89 % 1023,3 hPa 0,0 mm 6,7 km/h (2 Bft) N-NO 22 9,4 C 9,3 km/h (2 Bft)
09.06.2015 19:00 11,1 C 11,1 C 87 % 1023,3 hPa 0,0 mm 5,2 km/h (1 Bft) SO 135 9,0 C 4,9 km/h (1 Bft)
09.06.2015 19:05 11,1 C 11,1 C 87 % 1023,3 hPa 0,0 mm 4,4 km/h (1 Bft) NO 45 9,0 C 3,4 km/h (1 Bft)
09.06.2015 19:10 11,1 C 11,1 C 87 % 1023,3 hPa 0,0 mm 5,4 km/h (1 Bft) NO 45 9,0 C 9,3 km/h (2 Bft)
09.06.2015 19:15 11,1 C 11,1 C 87 % 1023,3 hPa 0,0 mm 5,4 km/h (1 Bft) NO 45 9,0 C 6,2 km/h (2 Bft)
09.06.2015 19:20 11,1 C 11,1 C 87 % 1023,3 hPa 0,0 mm 4,1 km/h (1 Bft) O 90 9,0 C 5,7 km/h (1 Bft)
09.06.2015 19:25 11,1 C 11,1 C 87 % 1023,3 hPa 0,0 mm 4,1 km/h (1 Bft) O-SO 112 9,0 C 10,4 km/h (2 Bft)
09.06.2015 19:30 11,1 C 11,0 C 90 % 1023,3 hPa 0,0 mm 6,2 km/h (2 Bft) O-NO 67 9,5 C 6,5 km/h (2 Bft)
09.06.2015 19:35 11,0 C 11,0 C 87 % 1023,3 hPa 0,0 mm 6,0 km/h (2 Bft) O-NO 67 8,9 C 8,8 km/h (2 Bft)
09.06.2015 19:40 11,1 C 11,0 C 90 % 1023,3 hPa 0,0 mm 4,7 km/h (1 Bft) NO 45 9,5 C 5,2 km/h (1 Bft)
09.06.2015 19:45 11,1 C 11,0 C 91 % 1023,3 hPa 0,0 mm 4,4 km/h (1 Bft) O-NO 67 9,7 C 3,4 km/h (1 Bft)
09.06.2015 19:50 11,1 C 11,0 C 91 % 1023,3 hPa 0,0 mm 3,6 km/h (1 Bft) O-SO 112 9,7 C 4,7 km/h (1 Bft)
09.06.2015 19:55 11,0 C 11,0 C 88 % 1023,6 hPa 0,0 mm 2,6 km/h (1 Bft) N-NO 22 9,1 C 3,9 km/h (1 Bft)
09.06.2015 20:00 11,0 C 11,0 C 88 % 1023,6 hPa 0,7 mm 2,8 km/h (1 Bft) O-SO 112 9,1 C 8,0 km/h (2 Bft)
09.06.2015 20:05 11,0 C 11,0 C 88 % 1023,6 hPa 0,0 mm 3,9 km/h (1 Bft) SO 135 9,1 C 4,9 km/h (1 Bft)
09.06.2015 20:10 11,0 C 10,9 C 91 % 1023,6 hPa 0,0 mm 3,6 km/h (1 Bft) N 360 9,6 C 6,5 km/h (2 Bft)
09.06.2015 20:15 11,0 C 10,9 C 91 % 1023,4 hPa 0,0 mm 3,1 km/h (1 Bft) N-NO 22 9,6 C 3,1 km/h (1 Bft)
09.06.2015 20:20 11,0 C 11,0 C 88 % 1023,4 hPa 0,0 mm 4,1 km/h (1 Bft) NO 45 9,1 C 12,2 km/h (2 Bft)
09.06.2015 20:25 11,0 C 10,9 C 91 % 1023,4 hPa 0,0 mm 4,7 km/h (1 Bft) O-NO 67 9,6 C 8,0 km/h (2 Bft)
09.06.2015 20:30 11,0 C 10,9 C 91 % 1023,4 hPa 0,0 mm 4,4 km/h (1 Bft) N-NO 22 9,6 C 0,0 km/h (0 Bft)
09.06.2015 20:35 11,0 C 10,9 C 91 % 1023,3 hPa 0,0 mm 4,4 km/h (1 Bft) N-NO 22 9,6 C 7,8 km/h (2 Bft)
09.06.2015 20:40 11,0 C 10,9 C 91 % 1023,3 hPa 0,0 mm 5,7 km/h (1 Bft) N-NO 22 9,6 C 9,3 km/h (2 Bft)
09.06.2015 20:45 11,0 C 10,9 C 91 % 1023,3 hPa 0,0 mm 6,0 km/h (2 Bft) O 90 9,6 C 5,7 km/h (1 Bft)
09.06.2015 20:50 10,9 C 10,8 C 91 % 1023,3 hPa 0,0 mm 4,4 km/h (1 Bft) N 360 9,5 C 6,0 km/h (2 Bft)
09.06.2015 20:55 10,9 C 10,8 C 92 % 1023,2 hPa 0,0 mm 3,9 km/h (1 Bft) O-NO 67 9,7 C 4,1 km/h (1 Bft)
09.06.2015 21:00 10,9 C 10,8 C 92 % 1023,2 hPa 0,0 mm 4,1 km/h (1 Bft) NO 45 9,7 C 5,2 km/h (1 Bft)
09.06.2015 21:05 10,9 C 10,8 C 92 % 1023,2 hPa 0,0 mm 5,2 km/h (1 Bft) SO 135 9,7 C 10,6 km/h (2 Bft)
09.06.2015 21:10 10,9 C 10,8 C 92 % 1023,2 hPa 0,0 mm 6,5 km/h (2 Bft) NO 45 9,7 C 15,5 km/h (3 Bft)
09.06.2015 21:15 10,9 C 10,8 C 92 % 1023,3 hPa 0,0 mm 7,0 km/h (2 Bft) O-NO 67 9,7 C 7,0 km/h (2 Bft)
09.06.2015 21:20 10,8 C 10,8 C 88 % 1023,3 hPa 0,7 mm 7,0 km/h (2 Bft) O-NO 67 8,9 C 10,4 km/h (2 Bft)
09.06.2015 21:25 10,8 C 10,7 C 92 % 1023,3 hPa 0,0 mm 6,0 km/h (2 Bft) N-NO 22 9,6 C 6,0 km/h (2 Bft)
09.06.2015 21:30 10,8 C 10,7 C 92 % 1023,3 hPa 0,0 mm 4,4 km/h (1 Bft) NO 45 9,6 C 5,7 km/h (1 Bft)
09.06.2015 21:35 10,8 C 10,7 C 92 % 1023,4 hPa 0,0 mm 4,7 km/h (1 Bft) N-NO 22 9,6 C 2,8 km/h (1 Bft)
09.06.2015 21:40 10,8 C 10,7 C 92 % 1023,4 hPa 0,0 mm 3,6 km/h (1 Bft) O-NO 67 9,6 C 7,5 km/h (2 Bft)
09.06.2015 21:45 10,8 C 10,7 C 92 % 1023,4 hPa 0,0 mm 4,7 km/h (1 Bft) O-NO 67 9,6 C 11,7 km/h (2 Bft)
09.06.2015 21:50 10,8 C 10,7 C 92 % 1023,4 hPa 0,0 mm 7,3 km/h (2 Bft) O 90 9,6 C 17,3 km/h (3 Bft)
09.06.2015 21:55 10,8 C 10,7 C 92 % 1023,5 hPa 0,0 mm 8,3 km/h (2 Bft) NO 45 9,6 C 14,8 km/h (3 Bft)
09.06.2015 22:00 10,8 C 10,6 C 92 % 1023,5 hPa 0,0 mm 7,8 km/h (2 Bft) N-NO 22 9,6 C 11,1 km/h (2 Bft)
09.06.2015 22:05 10,8 C 10,7 C 92 % 1023,5 hPa 0,0 mm 6,5 km/h (2 Bft) N-NO 22 9,6 C 8,0 km/h (2 Bft)
09.06.2015 22:10 10,8 C 10,7 C 92 % 1023,5 hPa 0,0 mm 6,2 km/h (2 Bft) O-NO 67 9,6 C 8,0 km/h (2 Bft)
09.06.2015 22:15 10,8 C 10,7 C 92 % 1023,6 hPa 0,0 mm 5,7 km/h (1 Bft) O-NO 67 9,6 C 4,7 km/h (1 Bft)
09.06.2015 22:20 10,8 C 10,7 C 92 % 1023,6 hPa 0,0 mm 5,4 km/h (1 Bft) O-NO 67 9,6 C 6,5 km/h (2 Bft)
09.06.2015 22:25 10,8 C 10,7 C 92 % 1023,6 hPa 0,0 mm 6,0 km/h (2 Bft) N-NO 22 9,6 C 15,0 km/h (3 Bft)
09.06.2015 22:30 10,8 C 10,7 C 92 % 1023,6 hPa 0,0 mm 6,5 km/h (2 Bft) O-NO 67 9,6 C 6,5 km/h (2 Bft)
09.06.2015 22:35 10,7 C 10,6 C 92 % 1023,6 hPa 0,7 mm 7,3 km/h (2 Bft) NO 45 9,5 C 15,3 km/h (3 Bft)
09.06.2015 22:40 10,7 C 10,6 C 92 % 1023,6 hPa 0,0 mm 5,4 km/h (1 Bft) NO 45 9,5 C 9,3 km/h (2 Bft)
09.06.2015 22:45 10,7 C 10,6 C 92 % 1023,6 hPa 0,0 mm 4,9 km/h (1 Bft) NO 45 9,5 C 3,9 km/h (1 Bft)
09.06.2015 22:50 10,7 C 10,6 C 92 % 1023,6 hPa 0,0 mm 4,4 km/h (1 Bft) O-SO 112 9,5 C 6,2 km/h (2 Bft)
09.06.2015 22:55 10,7 C 10,6 C 93 % 1023,6 hPa 0,0 mm 4,7 km/h (1 Bft) S 180 9,6 C 5,2 km/h (1 Bft)
09.06.2015 23:00 10,7 C 10,6 C 93 % 1023,6 hPa 0,0 mm 4,7 km/h (1 Bft) O-NO 67 9,6 C 6,7 km/h (2 Bft)
09.06.2015 23:05 10,6 C 10,6 C 89 % 1023,6 hPa 0,0 mm 4,4 km/h (1 Bft) O-NO 67 8,9 C 6,7 km/h (2 Bft)
09.06.2015 23:10 10,6 C 10,6 C 89 % 1023,6 hPa 0,0 mm 4,4 km/h (1 Bft) N-NO 22 8,9 C 10,1 km/h (2 Bft)
09.06.2015 23:15 10,6 C 10,6 C 89 % 1023,8 hPa 0,0 mm 4,9 km/h (1 Bft) O-NO 67 8,9 C 10,1 km/h (2 Bft)
09.06.2015 23:20 10,7 C 10,6 C 93 % 1023,8 hPa 0,0 mm 3,6 km/h (1 Bft) N-NO 22 9,6 C 8,0 km/h (2 Bft)
09.06.2015 23:25 10,7 C 10,6 C 93 % 1023,8 hPa 0,0 mm 3,6 km/h (1 Bft) SO 135 9,6 C 4,9 km/h (1 Bft)
09.06.2015 23:30 10,7 C 10,6 C 93 % 1023,8 hPa 0,0 mm 3,6 km/h (1 Bft) N-NO 22 9,6 C 0,0 km/h (0 Bft)
09.06.2015 23:35 10,7 C 10,6 C 93 % 1023,8 hPa 0,0 mm 3,1 km/h (1 Bft) N-NO 22 9,6 C 7,8 km/h (2 Bft)
09.06.2015 23:40 10,7 C 10,6 C 93 % 1023,8 hPa 0,7 mm 4,1 km/h (1 Bft) O-NO 67 9,6 C 3,4 km/h (1 Bft)
09.06.2015 23:45 10,7 C 10,6 C 93 % 1023,8 hPa 0,0 mm 5,4 km/h (1 Bft) NO 45 9,6 C 10,6 km/h (2 Bft)
09.06.2015 23:50 10,6 C 10,6 C 93 % 1023,8 hPa 0,0 mm 6,0 km/h (2 Bft) N-NO 22 9,5 C 4,4 km/h (1 Bft)
09.06.2015 23:55 10,6 C 10,6 C 93 % 1023,7 hPa 0,0 mm 6,2 km/h (2 Bft) O-NO 67 9,5 C 7,8 km/h (2 Bft)
_ Min-Zeit 06:15 05:55 17:10 05:10 - 01:10 - - 06:15 23:30
Minimum _ 10,3 C 10,3 C 86 % 1021,9 hPa - 0,0 km/h (0 Bft) - - 8,4 C 0,0 km/h (0 Bft)
_ Max-Zeit 14:35 14:35 23:55 23:50 23:40 21:55 - - 00:50 21:50
Maximum _ 12,0 C 13,2 C 93 % 1023,8 hPa 0,7 mm 8,3 km/h
NO (2 Bft)
- - 10,2 C 17,3 km/h
O (3 Bft)
Durchschnitt _ 11,0 C 11,1 C 89 % 1023,0 hPa #4,1 mm 3,5 km/h (1 Bft) N-NO - 9,2 C 4,9 km/h (1 Bft)